createdAt,value
2023-09-27T00:00:33.001Z,99.98
2023-09-27T00:01:33.035Z,99.99
2023-09-27T00:02:33.073Z,99.99
2023-09-27T00:03:33.043Z,99.99
2023-09-27T00:04:33.041Z,99.99
2023-09-27T00:05:33.144Z,99.99
2023-09-27T00:06:33.090Z,99.99
2023-09-27T00:07:33.147Z,99.99
2023-09-27T00:08:33.159Z,99.99
2023-09-27T00:09:33.100Z,99.99
2023-09-27T00:10:33.120Z,99.99
2023-09-27T00:11:33.203Z,99.99
2023-09-27T00:12:33.146Z,99.99
2023-09-27T00:13:33.157Z,99.99
2023-09-27T00:14:33.196Z,99.99
2023-09-27T00:15:33.207Z,99.99
2023-09-27T00:16:33.245Z,99.99
2023-09-27T00:17:33.283Z,99.99
2023-09-27T00:18:33.243Z,99.99
2023-09-27T00:19:33.277Z,99.99
2023-09-27T00:20:33.277Z,99.99
2023-09-27T00:21:33.289Z,99.99
2023-09-27T00:22:33.307Z,99.99
2023-09-27T00:23:33.371Z,99.99
2023-09-27T00:24:33.359Z,99.99
2023-09-27T00:25:33.352Z,99.91
2023-09-27T00:26:33.365Z,99.91
2023-09-27T00:27:33.375Z,99.82
2023-09-27T00:28:33.409Z,99.82
2023-09-27T00:29:33.466Z,99.82
2023-09-27T00:30:33.455Z,99.91
2023-09-27T00:31:33.524Z,99.99
2023-09-27T00:32:33.557Z,99.91
2023-09-27T00:33:33.513Z,99.99
2023-09-27T00:34:33.506Z,99.99
2023-09-27T00:35:33.571Z,99.99
2023-09-27T00:36:33.521Z,99.99
2023-09-27T00:37:33.539Z,99.99
2023-09-27T00:38:33.611Z,99.99
2023-09-27T00:39:33.558Z,99.99
2023-09-27T00:40:33.574Z,99.99
2023-09-27T00:41:33.652Z,99.99
2023-09-27T00:42:33.606Z,99.99
2023-09-27T00:43:33.634Z,99.99
2023-09-27T00:44:33.672Z,99.99
2023-09-27T00:45:33.650Z,99.99
2023-09-27T00:46:33.689Z,99.99
2023-09-27T00:47:33.697Z,99.99
2023-09-27T00:48:33.742Z,99.99
2023-09-27T00:49:33.707Z,99.99
2023-09-27T00:50:33.761Z,99.99
2023-09-27T00:51:33.772Z,99.99
2023-09-27T00:52:33.788Z,99.99
2023-09-27T00:53:33.828Z,99.99
2023-09-27T00:54:33.790Z,99.99
2023-09-27T00:55:33.799Z,99.99
2023-09-27T00:56:33.840Z,99.99
2023-09-27T00:57:33.848Z,99.99
2023-09-27T00:58:33.853Z,99.99
2023-09-27T00:59:33.893Z,99.99
2023-09-27T01:00:33.879Z,99.99
2023-09-27T01:01:33.945Z,99.99
2023-09-27T01:02:34.011Z,99.86
2023-09-27T01:03:33.915Z,99.76
2023-09-27T01:04:33.931Z,99.66
2023-09-27T01:05:34.015Z,99.96
2023-09-27T01:06:34.010Z,99.96
2023-09-27T01:07:33.985Z,99.99
2023-09-27T01:08:34.074Z,99.99
2023-09-27T01:09:34.006Z,99.99
2023-09-27T01:10:34.025Z,99.99
2023-09-27T01:11:34.062Z,99.99
2023-09-27T01:12:34.134Z,99.99
2023-09-27T01:13:34.060Z,99.99
2023-09-27T01:14:34.177Z,99.99
2023-09-27T01:15:34.119Z,99.99
2023-09-27T01:16:34.186Z,99.99
2023-09-27T01:17:34.171Z,99.99
2023-09-27T01:18:34.149Z,99.99
2023-09-27T01:19:34.160Z,99.99
2023-09-27T01:20:34.361Z,99.99
2023-09-27T01:21:34.229Z,99.99
2023-09-27T01:22:34.210Z,99.99
2023-09-27T01:23:34.256Z,99.99
2023-09-27T01:24:34.238Z,99.99
2023-09-27T01:25:34.244Z,99.80
2023-09-27T01:26:34.259Z,99.80
2023-09-27T01:27:34.270Z,99.99
2023-09-27T01:28:34.286Z,99.99
2023-09-27T01:29:34.509Z,99.99
2023-09-27T01:30:34.376Z,99.91
2023-09-27T01:31:34.332Z,99.80
2023-09-27T01:32:34.451Z,99.91
2023-09-27T01:33:34.375Z,99.91
2023-09-27T01:34:34.399Z,99.99
2023-09-27T01:35:34.487Z,99.91
2023-09-27T01:36:34.411Z,99.99
2023-09-27T01:37:34.424Z,99.99
2023-09-27T01:38:34.477Z,99.99
2023-09-27T01:39:34.472Z,99.99
2023-09-27T01:40:34.474Z,99.99
2023-09-27T01:41:34.507Z,99.99
2023-09-27T01:42:34.505Z,99.99
2023-09-27T01:43:34.529Z,99.99
2023-09-27T01:44:34.557Z,99.99
2023-09-27T01:45:34.559Z,99.99
2023-09-27T01:46:34.564Z,99.99
2023-09-27T01:47:34.675Z,99.99
2023-09-27T01:48:34.619Z,99.99
2023-09-27T01:49:34.617Z,99.99
2023-09-27T01:50:34.747Z,99.99
2023-09-27T01:51:34.656Z,99.99
2023-09-27T01:52:34.668Z,99.99
2023-09-27T01:53:34.760Z,99.99
2023-09-27T01:54:34.683Z,99.99
2023-09-27T01:55:34.708Z,99.99
2023-09-27T01:56:34.770Z,99.99
2023-09-27T01:57:34.745Z,99.99
2023-09-27T01:58:34.758Z,99.99
2023-09-27T01:59:34.790Z,99.99
2023-09-27T02:00:34.770Z,99.99
2023-09-27T02:01:34.868Z,99.99
2023-09-27T02:02:34.902Z,99.99
2023-09-27T02:03:34.935Z,99.99
2023-09-27T02:04:34.887Z,99.99
2023-09-27T02:05:34.973Z,99.99
2023-09-27T02:06:34.875Z,99.99
2023-09-27T02:07:34.914Z,99.99
2023-09-27T02:08:34.936Z,99.99
2023-09-27T02:09:34.938Z,99.99
2023-09-27T02:10:34.932Z,99.99
2023-09-27T02:11:35.046Z,99.99
2023-09-27T02:12:34.972Z,99.99
2023-09-27T02:13:34.982Z,99.99
2023-09-27T02:14:35.069Z,99.99
2023-09-27T02:15:35.020Z,99.99
2023-09-27T02:16:35.054Z,99.99
2023-09-27T02:17:35.143Z,99.99
2023-09-27T02:18:35.046Z,99.99
2023-09-27T02:19:35.072Z,99.99
2023-09-27T02:20:35.115Z,99.99
2023-09-27T02:21:35.119Z,99.99
2023-09-27T02:22:35.113Z,99.99
2023-09-27T02:23:35.185Z,99.99
2023-09-27T02:24:35.128Z,99.99
2023-09-27T02:25:35.179Z,99.99
2023-09-27T02:26:35.196Z,99.99
2023-09-27T02:27:35.197Z,99.99
2023-09-27T02:28:35.191Z,99.99
2023-09-27T02:29:35.217Z,99.99
2023-09-27T02:30:35.255Z,99.99
2023-09-27T02:31:35.274Z,99.99
2023-09-27T02:32:35.291Z,99.99
2023-09-27T02:33:35.274Z,99.99
2023-09-27T02:34:35.278Z,99.99
2023-09-27T02:35:35.351Z,99.99
2023-09-27T02:36:35.310Z,99.99
2023-09-27T02:37:35.337Z,99.99
2023-09-27T02:38:35.405Z,99.99
2023-09-27T02:39:35.393Z,99.99
2023-09-27T02:40:35.400Z,99.99
2023-09-27T02:41:35.400Z,99.99
2023-09-27T02:42:35.413Z,99.99
2023-09-27T02:43:35.429Z,99.99
2023-09-27T02:44:35.457Z,99.99
2023-09-27T02:45:35.663Z,99.99
2023-09-27T02:46:35.472Z,99.99
2023-09-27T02:47:35.595Z,99.99
2023-09-27T02:48:35.502Z,99.99
2023-09-27T02:49:35.547Z,99.99
2023-09-27T02:50:35.609Z,99.99
2023-09-27T02:51:35.560Z,99.99
2023-09-27T02:52:35.572Z,99.99
2023-09-27T02:53:35.647Z,99.99
2023-09-27T02:54:35.634Z,99.99
2023-09-27T02:55:35.629Z,99.99
2023-09-27T02:56:35.643Z,99.99
2023-09-27T02:57:35.673Z,99.99
2023-09-27T02:58:35.692Z,99.99
2023-09-27T02:59:35.757Z,99.99
2023-09-27T03:00:35.718Z,99.99
2023-09-27T03:01:35.737Z,99.99
2023-09-27T03:02:35.812Z,99.99
2023-09-27T03:03:35.824Z,99.99
2023-09-27T03:04:35.759Z,99.99
2023-09-27T03:05:35.830Z,99.99
2023-09-27T03:06:35.785Z,99.99
2023-09-27T03:07:35.799Z,99.99
2023-09-27T03:08:35.879Z,99.99
2023-09-27T03:09:35.833Z,99.99
2023-09-27T03:10:35.846Z,99.99
2023-09-27T03:11:35.868Z,99.99
2023-09-27T03:12:35.883Z,99.99
2023-09-27T03:13:35.908Z,99.99
2023-09-27T03:14:35.949Z,99.99
2023-09-27T03:15:35.945Z,99.99
2023-09-27T03:16:35.956Z,99.99
2023-09-27T03:17:36.066Z,99.99
2023-09-27T03:18:36.010Z,99.99
2023-09-27T03:19:36.007Z,99.99
2023-09-27T03:20:36.057Z,99.99
2023-09-27T03:21:36.049Z,99.99
2023-09-27T03:22:36.091Z,99.99
2023-09-27T03:23:36.095Z,99.99
2023-09-27T03:24:36.097Z,99.99
2023-09-27T03:25:36.103Z,99.99
2023-09-27T03:26:36.153Z,99.99
2023-09-27T03:27:36.144Z,99.99
2023-09-27T03:28:36.163Z,99.99
2023-09-27T03:29:36.181Z,99.99
2023-09-27T03:30:36.200Z,99.99
2023-09-27T03:31:36.239Z,99.99
2023-09-27T03:32:36.246Z,99.99
2023-09-27T03:33:36.230Z,99.99
2023-09-27T03:34:36.265Z,99.99
2023-09-27T03:35:36.291Z,99.99
2023-09-27T03:36:36.330Z,99.99
2023-09-27T03:37:36.313Z,99.99
2023-09-27T03:38:36.357Z,99.99
2023-09-27T03:39:36.335Z,99.99
2023-09-27T03:40:36.380Z,99.99
2023-09-27T03:41:36.429Z,99.99
2023-09-27T03:42:36.393Z,99.99
2023-09-27T03:43:36.411Z,99.99
2023-09-27T03:44:36.440Z,99.99
2023-09-27T03:45:36.451Z,99.99
2023-09-27T03:46:36.473Z,99.99
2023-09-27T03:47:36.530Z,99.99
2023-09-27T03:48:36.533Z,99.99
2023-09-27T03:49:36.505Z,99.99
2023-09-27T03:50:36.588Z,99.99
2023-09-27T03:51:36.534Z,99.99
2023-09-27T03:52:36.555Z,99.99
2023-09-27T03:53:36.656Z,99.99
2023-09-27T03:54:36.614Z,99.99
2023-09-27T03:55:36.625Z,99.99
2023-09-27T03:56:36.654Z,99.99
2023-09-27T03:57:36.623Z,99.99
2023-09-27T03:58:36.658Z,99.99
2023-09-27T03:59:36.708Z,99.99
2023-09-27T04:00:36.771Z,99.99
2023-09-27T04:01:36.720Z,99.99
2023-09-27T04:02:36.779Z,99.99
2023-09-27T04:03:36.794Z,99.99
2023-09-27T04:04:36.775Z,99.99
2023-09-27T04:05:36.789Z,99.99
2023-09-27T04:06:36.784Z,99.99
2023-09-27T04:07:36.806Z,99.99
2023-09-27T04:08:36.881Z,99.99
2023-09-27T04:09:36.841Z,99.99
2023-09-27T04:10:36.849Z,99.99
2023-09-27T04:11:36.896Z,99.99
2023-09-27T04:12:36.882Z,99.99
2023-09-27T04:13:36.928Z,99.99
2023-09-27T04:14:36.984Z,99.99
2023-09-27T04:15:36.950Z,99.99
2023-09-27T04:16:36.970Z,99.99
2023-09-27T04:17:37.078Z,99.99
2023-09-27T04:18:37.017Z,99.99
2023-09-27T04:19:37.014Z,99.99
2023-09-27T04:20:37.053Z,99.99
2023-09-27T04:21:37.038Z,99.99
2023-09-27T04:22:37.106Z,99.99
2023-09-27T04:23:37.126Z,99.99
2023-09-27T04:24:37.087Z,99.99
2023-09-27T04:25:37.100Z,99.99
2023-09-27T04:26:37.173Z,99.99
2023-09-27T04:27:37.152Z,99.99
2023-09-27T04:28:37.143Z,99.99
2023-09-27T04:29:37.194Z,99.99
2023-09-27T04:30:37.181Z,99.99
2023-09-27T04:31:37.271Z,99.99
2023-09-27T04:32:37.319Z,99.99
2023-09-27T04:33:37.228Z,99.99
2023-09-27T04:34:37.249Z,99.99
2023-09-27T04:35:37.307Z,99.99
2023-09-27T04:36:37.307Z,99.99
2023-09-27T04:37:37.300Z,99.99
2023-09-27T04:38:37.341Z,99.99
2023-09-27T04:39:37.335Z,99.99
2023-09-27T04:40:37.358Z,99.99
2023-09-27T04:41:37.459Z,99.99
2023-09-27T04:42:37.388Z,99.99
2023-09-27T04:43:37.402Z,99.99
2023-09-27T04:44:37.445Z,99.99
2023-09-27T04:45:37.467Z,99.99
2023-09-27T04:46:37.463Z,99.99
2023-09-27T04:47:37.547Z,99.99
2023-09-27T04:48:37.492Z,99.99
2023-09-27T04:49:37.515Z,99.99
2023-09-27T04:50:37.648Z,99.99
2023-09-27T04:51:37.548Z,99.99
2023-09-27T04:52:37.559Z,99.99
2023-09-27T04:53:37.622Z,99.99
2023-09-27T04:54:37.593Z,99.99
2023-09-27T04:55:37.620Z,99.99
2023-09-27T04:56:37.644Z,99.99
2023-09-27T04:57:37.633Z,99.99
2023-09-27T04:58:39.455Z,99.99
2023-09-27T04:59:37.727Z,99.99
2023-09-27T05:00:37.691Z,99.99
2023-09-27T05:01:37.790Z,99.99
2023-09-27T05:02:37.789Z,99.99
2023-09-27T05:03:37.798Z,99.99
2023-09-27T05:04:37.759Z,99.99
2023-09-27T05:05:37.773Z,99.99
2023-09-27T05:06:37.783Z,99.99
2023-09-27T05:07:37.826Z,99.99
2023-09-27T05:08:37.833Z,99.99
2023-09-27T05:09:37.850Z,99.99
2023-09-27T05:10:37.837Z,99.99
2023-09-27T05:11:37.883Z,99.99
2023-09-27T05:12:37.878Z,99.99
2023-09-27T05:13:37.909Z,99.99
2023-09-27T05:14:37.959Z,99.99
2023-09-27T05:15:37.964Z,99.99
2023-09-27T05:16:37.941Z,99.99
2023-09-27T05:17:38.092Z,99.99
2023-09-27T05:18:37.998Z,99.99
2023-09-27T05:19:38.008Z,99.99
2023-09-27T05:20:38.031Z,99.99
2023-09-27T05:21:38.023Z,99.99
2023-09-27T05:22:38.041Z,99.99
2023-09-27T05:23:38.100Z,99.99
2023-09-27T05:24:38.078Z,99.99
2023-09-27T05:25:38.099Z,99.99
2023-09-27T05:26:38.198Z,99.99
2023-09-27T05:27:38.154Z,99.99
2023-09-27T05:28:38.156Z,99.99
2023-09-27T05:29:38.198Z,99.99
2023-09-27T05:30:38.205Z,99.99
2023-09-27T05:31:38.234Z,99.99
2023-09-27T05:32:38.392Z,99.99
2023-09-27T05:33:38.244Z,99.99
2023-09-27T05:34:38.260Z,99.99
2023-09-27T05:35:38.301Z,99.99
2023-09-27T05:36:38.289Z,99.99
2023-09-27T05:37:38.333Z,99.99
2023-09-27T05:38:38.350Z,99.99
2023-09-27T05:39:38.365Z,99.99
2023-09-27T05:40:38.364Z,99.99
2023-09-27T05:41:38.412Z,99.99
2023-09-27T05:42:38.426Z,99.99
2023-09-27T05:43:38.414Z,99.99
2023-09-27T05:44:38.480Z,99.99
2023-09-27T05:45:38.467Z,99.99
2023-09-27T05:46:38.525Z,99.99
2023-09-27T05:47:38.575Z,99.99
2023-09-27T05:48:38.547Z,99.99
2023-09-27T05:49:38.518Z,99.99
2023-09-27T05:50:38.569Z,99.99
2023-09-27T05:51:38.567Z,99.99
2023-09-27T05:52:38.611Z,99.99
2023-09-27T05:53:38.623Z,99.99
2023-09-27T05:54:38.615Z,99.99
2023-09-27T05:55:38.640Z,99.99
2023-09-27T05:56:38.713Z,99.99
2023-09-27T05:57:38.659Z,99.99
2023-09-27T05:58:38.703Z,99.99
2023-09-27T05:59:38.732Z,99.99
2023-09-27T06:00:38.856Z,99.99
2023-09-27T06:01:38.721Z,99.99
2023-09-27T06:02:38.821Z,99.99
2023-09-27T06:03:38.965Z,99.99
2023-09-27T06:04:38.783Z,99.99
2023-09-27T06:05:38.935Z,99.99
2023-09-27T06:06:38.797Z,99.99
2023-09-27T06:07:38.808Z,99.99
2023-09-27T06:08:38.864Z,99.99
2023-09-27T06:09:38.855Z,99.99
2023-09-27T06:10:38.863Z,99.99
2023-09-27T06:11:38.917Z,99.99
2023-09-27T06:12:38.893Z,99.99
2023-09-27T06:13:38.884Z,99.99
2023-09-27T06:14:38.955Z,99.99
2023-09-27T06:15:38.943Z,99.99
2023-09-27T06:16:38.974Z,99.99
2023-09-27T06:17:39.026Z,99.99
2023-09-27T06:18:38.995Z,99.99
2023-09-27T06:19:39.011Z,99.99
2023-09-27T06:20:39.048Z,99.99
2023-09-27T06:21:39.034Z,99.99
2023-09-27T06:22:39.037Z,99.99
2023-09-27T06:23:39.182Z,99.99
2023-09-27T06:24:39.079Z,99.99
2023-09-27T06:25:39.070Z,99.99
2023-09-27T06:26:39.120Z,99.99
2023-09-27T06:27:39.111Z,99.99
2023-09-27T06:28:39.150Z,99.99
2023-09-27T06:29:39.157Z,99.99
2023-09-27T06:30:39.158Z,99.99
2023-09-27T06:31:39.202Z,99.99
2023-09-27T06:32:39.256Z,99.99
2023-09-27T06:33:39.220Z,99.99
2023-09-27T06:34:39.218Z,99.99
2023-09-27T06:35:39.272Z,99.99
2023-09-27T06:36:39.260Z,99.99
2023-09-27T06:37:39.271Z,99.99
2023-09-27T06:38:39.363Z,99.99
2023-09-27T06:39:39.282Z,99.99
2023-09-27T06:40:39.311Z,99.99
2023-09-27T06:41:39.336Z,99.99
2023-09-27T06:42:39.356Z,99.99
2023-09-27T06:43:39.338Z,99.99
2023-09-27T06:44:39.381Z,99.99
2023-09-27T06:45:39.366Z,99.99
2023-09-27T06:46:48.634Z,99.99
2023-09-27T06:47:39.627Z,99.99
2023-09-27T06:48:39.558Z,99.99
2023-09-27T06:49:39.429Z,99.99
2023-09-27T06:50:39.470Z,99.99
2023-09-27T06:51:39.475Z,99.99
2023-09-27T06:52:39.493Z,99.99
2023-09-27T06:53:39.528Z,99.99
2023-09-27T06:54:39.513Z,99.99
2023-09-27T06:55:39.534Z,99.99
2023-09-27T06:56:39.597Z,99.99
2023-09-27T06:57:39.591Z,99.99
2023-09-27T06:58:39.582Z,99.99
2023-09-27T06:59:39.633Z,99.99
2023-09-27T07:00:39.609Z,99.99
2023-09-27T07:01:39.691Z,99.99
2023-09-27T07:02:39.687Z,99.99
2023-09-27T07:03:39.767Z,99.99
2023-09-27T07:04:39.666Z,99.99
2023-09-27T07:05:39.742Z,99.99
2023-09-27T07:06:39.724Z,99.99
2023-09-27T07:07:39.706Z,99.99
2023-09-27T07:08:39.750Z,99.99
2023-09-27T07:09:39.730Z,99.99
2023-09-27T07:10:39.761Z,99.99
2023-09-27T07:11:39.772Z,99.99
2023-09-27T07:12:39.778Z,99.99
2023-09-27T07:13:39.783Z,99.99
2023-09-27T07:14:39.881Z,99.99
2023-09-27T07:15:39.858Z,99.99
2023-09-27T07:16:46.683Z,99.99
2023-09-27T07:17:40.019Z,99.99
2023-09-27T07:18:40.005Z,99.99
2023-09-27T07:19:39.904Z,99.99
2023-09-27T07:20:39.954Z,99.99
2023-09-27T07:21:39.916Z,99.99
2023-09-27T07:22:39.931Z,99.99
2023-09-27T07:23:39.962Z,99.99
2023-09-27T07:24:39.981Z,99.99
2023-09-27T07:25:39.971Z,99.99
2023-09-27T07:26:40.022Z,99.99
2023-09-27T07:27:40.008Z,99.99
2023-09-27T07:28:40.024Z,99.99
2023-09-27T07:29:40.100Z,99.99
2023-09-27T07:30:40.049Z,99.99
2023-09-27T07:31:40.077Z,99.99
2023-09-27T07:32:40.183Z,99.99
2023-09-27T07:33:40.134Z,99.99
2023-09-27T07:34:40.135Z,99.99
2023-09-27T07:35:40.147Z,99.99
2023-09-27T07:36:40.141Z,99.99
2023-09-27T07:37:40.162Z,99.99
2023-09-27T07:38:40.236Z,99.99
2023-09-27T07:39:41.635Z,99.99
2023-09-27T07:40:40.214Z,99.99
2023-09-27T07:41:40.333Z,99.99
2023-09-27T07:42:40.239Z,99.99
2023-09-27T07:43:40.379Z,99.99
2023-09-27T07:44:40.463Z,99.99
2023-09-27T07:45:40.295Z,99.99
2023-09-27T07:46:40.350Z,99.99
2023-09-27T07:47:40.438Z,99.99
2023-09-27T07:48:40.690Z,99.99
2023-09-27T07:49:40.340Z,99.99
2023-09-27T07:50:40.385Z,99.99
2023-09-27T07:51:40.374Z,99.99
2023-09-27T07:52:40.412Z,99.99
2023-09-27T07:53:40.451Z,99.99
2023-09-27T07:54:40.446Z,99.99
2023-09-27T07:55:40.432Z,99.99
2023-09-27T07:56:40.529Z,99.99
2023-09-27T07:57:40.480Z,99.99
2023-09-27T07:58:40.474Z,99.99
2023-09-27T07:59:40.561Z,99.99
2023-09-27T08:00:40.683Z,99.99
2023-09-27T08:01:40.596Z,99.99
2023-09-27T08:02:40.703Z,99.99
2023-09-27T08:03:40.680Z,99.99
2023-09-27T08:04:40.630Z,99.99
2023-09-27T08:05:40.598Z,99.99
2023-09-27T08:06:40.608Z,99.99
2023-09-27T08:07:40.618Z,99.99
2023-09-27T08:08:40.681Z,99.99
2023-09-27T08:09:41.807Z,99.99
2023-09-27T08:10:40.648Z,99.99
2023-09-27T08:11:41.152Z,99.99
2023-09-27T08:12:40.676Z,99.99
2023-09-27T08:13:40.698Z,99.99
2023-09-27T08:14:40.775Z,99.99
2023-09-27T08:15:40.751Z,99.99
2023-09-27T08:16:40.842Z,99.99
2023-09-27T08:17:40.897Z,99.99
2023-09-27T08:18:40.858Z,99.99
2023-09-27T08:19:40.803Z,99.99
2023-09-27T08:20:40.887Z,99.99
2023-09-27T08:21:40.833Z,99.99
2023-09-27T08:22:41.087Z,99.99
2023-09-27T08:23:40.893Z,99.99
2023-09-27T08:24:40.892Z,99.99
2023-09-27T08:25:40.885Z,99.99
2023-09-27T08:26:40.917Z,99.99
2023-09-27T08:27:40.918Z,99.99
2023-09-27T08:28:40.932Z,99.95
2023-09-27T08:29:41.025Z,99.85
2023-09-27T08:30:40.993Z,99.85
2023-09-27T08:31:41.253Z,99.90
2023-09-27T08:32:41.060Z,99.69
2023-09-27T08:33:41.008Z,98.58
2023-09-27T08:34:41.035Z,97.97
2023-09-27T08:35:41.063Z,98.07
2023-09-27T08:36:41.042Z,98.58
2023-09-27T08:37:41.068Z,99.19
2023-09-27T08:38:41.139Z,98.84
2023-09-27T08:39:41.120Z,97.83
2023-09-27T08:40:41.111Z,97.52
2023-09-27T08:41:41.154Z,97.83
2023-09-27T08:42:41.135Z,97.62
2023-09-27T08:43:41.189Z,97.42
2023-09-27T08:44:41.251Z,98.18
2023-09-27T08:45:41.191Z,98.49
2023-09-27T08:46:41.227Z,97.98
2023-09-27T08:47:41.272Z,96.72
2023-09-27T08:48:41.256Z,95.56
2023-09-27T08:49:41.240Z,95.86
2023-09-27T08:50:41.290Z,95.42
2023-09-27T08:51:41.276Z,94.91
2023-09-27T08:52:41.281Z,93.15
2023-09-27T08:53:41.359Z,93.04
2023-09-27T08:54:41.319Z,93.40
2023-09-27T08:55:41.340Z,93.71
2023-09-27T08:56:41.434Z,93.20
2023-09-27T08:57:41.393Z,92.85
2023-09-27T08:58:41.400Z,91.24
2023-09-27T08:59:41.472Z,91.30
2023-09-27T09:00:41.436Z,91.09
2023-09-27T09:01:41.471Z,91.39
2023-09-27T09:02:41.646Z,92.41
2023-09-27T09:03:41.776Z,92.10
2023-09-27T09:04:41.473Z,92.30
2023-09-27T09:05:41.572Z,92.61
2023-09-27T09:06:41.584Z,93.12
2023-09-27T09:07:43.562Z,93.41
2023-09-27T09:08:43.703Z,93.32
2023-09-27T09:09:41.559Z,93.66
2023-09-27T09:10:41.567Z,92.96
2023-09-27T09:11:41.673Z,92.41
2023-09-27T09:12:41.624Z,92.71
2023-09-27T09:13:41.622Z,93.21
2023-09-27T09:14:41.662Z,93.62
2023-09-27T09:15:42.440Z,93.01
2023-09-27T09:16:41.849Z,92.50
2023-09-27T09:17:41.723Z,92.91
2023-09-27T09:18:41.687Z,93.32
2023-09-27T09:19:45.026Z,93.92
2023-09-27T09:20:41.743Z,94.02
2023-09-27T09:21:41.749Z,93.62
2023-09-27T09:22:41.745Z,92.71
2023-09-27T09:23:41.784Z,94.02
2023-09-27T09:24:41.778Z,93.72
2023-09-27T09:25:41.819Z,93.82
2023-09-27T09:26:41.846Z,94.83
2023-09-27T09:27:45.066Z,94.02
2023-09-27T09:28:41.831Z,93.41
2023-09-27T09:29:41.882Z,94.23
2023-09-27T09:30:41.884Z,93.72
2023-09-27T09:31:41.902Z,92.61
2023-09-27T09:32:41.951Z,92.61
2023-09-27T09:33:42.177Z,94.02
2023-09-27T09:34:41.926Z,94.93
2023-09-27T09:35:42.030Z,95.43
2023-09-27T09:36:41.959Z,95.03
2023-09-27T09:37:41.983Z,95.14
2023-09-27T09:38:42.033Z,92.77
2023-09-27T09:39:42.128Z,91.66
2023-09-27T09:40:42.045Z,90.95
2023-09-27T09:41:42.094Z,91.21
2023-09-27T09:42:42.063Z,90.30
2023-09-27T09:43:42.079Z,89.15
2023-09-27T09:44:42.287Z,88.75
2023-09-27T09:45:42.146Z,88.85
2023-09-27T09:46:42.122Z,88.54
2023-09-27T09:47:42.306Z,90.66
2023-09-27T09:48:42.158Z,91.06
2023-09-27T09:49:42.199Z,91.27
2023-09-27T09:50:42.252Z,90.77
2023-09-27T09:51:42.217Z,90.16
2023-09-27T09:52:42.225Z,90.26
2023-09-27T09:53:43.075Z,89.55
2023-09-27T09:54:42.272Z,88.40
2023-09-27T09:56:52.932Z,87.60
2023-09-27T09:57:52.283Z,88.90
2023-09-27T09:58:42.395Z,86.69
2023-09-27T09:59:42.354Z,86.95
2023-09-27T10:00:42.347Z,87.05
2023-09-27T10:01:42.405Z,86.24
2023-09-27T10:03:42.473Z,86.91
2023-09-27T10:04:42.420Z,87.01
2023-09-27T10:05:42.489Z,87.01
2023-09-27T10:06:49.562Z,86.30
2023-09-27T10:07:42.459Z,85.16
2023-09-27T10:08:42.513Z,84.45
2023-09-27T10:09:42.485Z,84.25
2023-09-27T10:10:42.490Z,84.41
2023-09-27T10:11:42.565Z,85.42
2023-09-27T10:12:42.551Z,87.73
2023-09-27T10:13:42.574Z,87.93
2023-09-27T10:14:42.568Z,88.88
2023-09-27T10:15:42.571Z,89.48
2023-09-27T10:16:42.680Z,86.57
2023-09-27T10:17:42.671Z,84.85
2023-09-27T10:18:42.672Z,85.05
2023-09-27T10:19:42.635Z,83.61
2023-09-27T10:20:42.642Z,84.91
2023-09-27T10:21:42.678Z,85.11
2023-09-27T10:22:44.217Z,85.11
2023-09-27T10:23:42.714Z,87.53
2023-09-27T10:24:42.706Z,86.32
2023-09-27T10:25:42.726Z,86.22
2023-09-27T10:26:42.816Z,87.53
2023-09-27T10:27:42.764Z,87.33
2023-09-27T10:28:42.764Z,88.74
2023-09-27T10:29:42.831Z,87.02
2023-09-27T10:30:42.800Z,85.62
2023-09-27T10:31:42.901Z,84.81
2023-09-27T10:32:42.917Z,84.41
2023-09-27T10:33:42.845Z,85.02
2023-09-27T10:34:42.854Z,84.47
2023-09-27T10:35:42.923Z,82.56
2023-09-27T10:36:47.718Z,82.32
2023-09-27T10:37:42.913Z,82.72
2023-09-27T10:38:42.976Z,82.12
2023-09-27T10:39:42.937Z,82.22
2023-09-27T10:40:42.976Z,81.38
2023-09-27T10:41:42.990Z,80.37
2023-09-27T10:42:42.974Z,80.37
2023-09-27T10:43:42.989Z,79.37
2023-09-27T10:44:43.036Z,79.97
2023-09-27T10:45:43.060Z,79.43
2023-09-27T10:46:43.030Z,80.24
2023-09-27T10:47:43.174Z,80.24
2023-09-27T10:48:43.066Z,78.93
2023-09-27T10:49:43.118Z,77.79
2023-09-27T10:50:43.129Z,78.39
2023-09-27T10:51:47.127Z,78.69
2023-09-27T10:52:43.122Z,80.56
2023-09-27T10:53:43.194Z,81.26
2023-09-27T10:54:43.175Z,80.86
2023-09-27T10:55:43.193Z,78.75
2023-09-27T10:56:43.231Z,79.25
2023-09-27T10:57:43.208Z,77.85
2023-09-27T10:58:43.214Z,78.25
2023-09-27T10:59:43.259Z,77.45
2023-09-27T11:00:43.250Z,81.06
2023-09-27T11:01:45.708Z,81.06
2023-09-27T11:02:43.581Z,80.82
2023-09-27T11:03:43.395Z,79.22
2023-09-27T11:04:43.328Z,78.81
2023-09-27T11:05:43.357Z,79.32
2023-09-27T11:06:43.340Z,77.91
2023-09-27T11:07:43.361Z,79.72
2023-09-27T11:08:43.482Z,77.81
2023-09-27T11:09:43.390Z,78.92
2023-09-27T11:10:43.400Z,79.52
2023-09-27T11:11:43.440Z,79.02
2023-09-27T11:12:43.426Z,77.91
2023-09-27T11:13:43.471Z,75.81
2023-09-27T11:14:43.500Z,76.91
2023-09-27T11:15:43.469Z,76.57
2023-09-27T11:16:43.533Z,75.27
2023-09-27T11:17:43.638Z,75.63
2023-09-27T11:18:43.629Z,74.63
2023-09-27T11:19:43.566Z,74.63
2023-09-27T11:20:43.859Z,74.93
2023-09-27T11:21:43.566Z,75.43
2023-09-27T11:22:43.595Z,76.24
2023-09-27T11:23:43.668Z,78.14
2023-09-27T11:24:43.613Z,74.03
2023-09-27T11:25:44.714Z,73.97
2023-09-27T11:26:43.688Z,74.37
2023-09-27T11:27:43.682Z,74.47
2023-09-27T11:28:43.666Z,77.84
2023-09-27T11:29:43.740Z,75.23
2023-09-27T11:30:43.692Z,74.43
2023-09-27T11:31:43.780Z,73.73
2023-09-27T11:32:43.818Z,74.50
2023-09-27T11:33:43.769Z,72.89
2023-09-27T11:34:43.766Z,71.30
2023-09-27T11:35:43.857Z,70.79
2023-09-27T11:36:43.836Z,70.73
2023-09-27T11:37:43.834Z,70.93
2023-09-27T11:38:43.839Z,71.73
2023-09-27T11:39:43.853Z,71.19
2023-09-27T11:40:44.316Z,72.09
2023-09-27T11:41:43.950Z,72.69
2023-09-27T11:42:43.889Z,72.89
2023-09-27T11:43:43.906Z,71.96
2023-09-27T11:44:44.038Z,73.86
2023-09-27T11:45:44.064Z,72.26
2023-09-27T11:46:44.045Z,70.86
2023-09-27T11:47:44.086Z,73.06
2023-09-27T11:48:44.017Z,72.42
2023-09-27T11:49:44.107Z,70.83
2023-09-27T11:50:44.242Z,69.82
2023-09-27T11:51:44.178Z,70.92
2023-09-27T11:52:44.109Z,71.62
2023-09-27T11:53:44.077Z,70.23
2023-09-27T11:54:44.102Z,71.62
2023-09-27T11:55:44.251Z,71.73
2023-09-27T11:56:45.948Z,71.03
2023-09-27T11:57:44.113Z,69.12
2023-09-27T11:58:44.125Z,69.43
2023-09-27T11:59:44.183Z,70.83
2023-09-27T12:00:44.173Z,70.86
2023-09-27T12:01:44.236Z,70.46
2023-09-27T12:02:56.444Z,70.16
2023-09-27T12:03:44.312Z,69.76
2023-09-27T12:04:44.492Z,72.36
2023-09-27T12:05:44.435Z,69.93
2023-09-27T12:06:44.671Z,73.43
2023-09-27T12:07:44.362Z,70.32
2023-09-27T12:08:44.326Z,70.43
2023-09-27T12:09:44.309Z,71.12
2023-09-27T12:10:44.358Z,68.62
2023-09-27T12:11:44.417Z,71.59
2023-09-27T12:12:44.351Z,72.19
2023-09-27T12:13:44.338Z,71.69
2023-09-27T12:14:44.425Z,70.69
2023-09-27T12:15:44.367Z,69.59
2023-09-27T12:16:44.388Z,71.79
2023-09-27T12:17:44.886Z,72.59
2023-09-27T12:18:44.480Z,74.39
2023-09-27T12:19:44.457Z,72.16
2023-09-27T12:20:46.504Z,70.69
2023-09-27T12:21:44.471Z,70.69
2023-09-27T12:22:44.505Z,70.79
2023-09-27T12:23:44.633Z,72.59
2023-09-27T12:24:44.535Z,70.49
2023-09-27T12:25:44.520Z,71.19
2023-09-27T12:26:44.578Z,69.69
2023-09-27T12:27:44.582Z,70.09
2023-09-27T12:28:44.594Z,69.09
2023-09-27T12:29:44.638Z,69.16
2023-09-27T12:30:44.603Z,69.09
2023-09-27T12:31:44.635Z,68.29
2023-09-27T12:32:44.719Z,69.19
2023-09-27T12:33:44.740Z,69.26
2023-09-27T12:34:44.657Z,70.16
2023-09-27T12:35:44.700Z,68.96
2023-09-27T12:36:44.781Z,68.66
2023-09-27T12:37:44.720Z,68.23
2023-09-27T12:38:44.737Z,69.13
2023-09-27T12:39:44.723Z,69.23
2023-09-27T12:40:44.755Z,68.13
2023-09-27T12:41:44.895Z,66.93
2023-09-27T12:42:44.797Z,67.63
2023-09-27T12:43:44.785Z,67.30
2023-09-27T12:44:44.845Z,66.80
2023-09-27T12:45:44.914Z,65.50
2023-09-27T12:46:44.871Z,66.23
2023-09-27T12:47:44.926Z,65.33
2023-09-27T12:48:44.945Z,67.03
2023-09-27T12:49:44.881Z,66.33
2023-09-27T12:50:44.962Z,67.23
2023-09-27T12:51:49.291Z,67.33
2023-09-27T12:52:44.945Z,66.76
2023-09-27T12:53:44.998Z,67.46
2023-09-27T12:54:44.965Z,66.83